Forside
METAR-TAF:

METAR-TAF

Lufthavne :

Sparta Community Airport (Hunter Field)

Sparta, Illinois, USA

Breddekreds: 38-08-56N, længdekreds: 089-41-55W, højde: 164 m

Aktuelle vejr

Denne rapport blev lavet for 10 minutter siden, kl. 07:15 UTC
Vind 7 kt fra syd
Temperatur 5°C
Fugtighed 70%
Tryk 1023 hPa
Sigt: 16.1 km
skyfri

METAR: KSAR 220715Z AUTO 19007KT 10SM CLR 05/00 A3021 RMK AO2 T00520000

Tid: 02:25 (07:25 UTC)


TAF: fraværende

Vejrobservationer og prognoser fra mere end 4000 lufthavne (METAR og TAF).

De gule og røde prikker repræsenterer de meteorologiske stationer.

Flyt musen over at se navnet på stationen.

Så klik over at se vejr observationer og prognoser.

At skifte det kort: Klik på de grønne knapper med et sort kors for at zoome ind; på den grønne knap med en bindestreg for at zoome ud; eller på de grønne pile for tilstødende kort.


METAR-TAF: